createdAt,value
2018-05-21T00:03:43.199Z,70.7
2018-05-21T00:08:43.082Z,69.8
2018-05-21T00:13:55.851Z,69.7
2018-05-21T00:18:55.758Z,69.9
2018-05-21T00:23:55.594Z,70.3
2018-05-21T00:28:55.707Z,70.1
2018-05-21T00:33:55.761Z,69.4
2018-05-21T00:38:57.510Z,70.2
2018-05-21T00:43:57.690Z,69.6
2018-05-21T00:48:58.075Z,69
2018-05-21T00:53:57.511Z,68.7
2018-05-21T00:59:13.122Z,68.9
2018-05-21T01:04:13.066Z,68.8
2018-05-21T01:09:13.026Z,68.1
2018-05-21T01:14:13.324Z,68.5
2018-05-21T01:19:13.205Z,69.1
2018-05-21T01:24:13.198Z,69.2
2018-05-21T01:29:13.248Z,68.9
2018-05-21T01:34:13.703Z,69.6
2018-05-21T01:39:13.414Z,70
2018-05-21T01:44:26.677Z,70.3
2018-05-21T01:49:26.565Z,70.1
2018-05-21T01:54:26.647Z,70.4
2018-05-21T01:59:26.644Z,71
2018-05-21T02:04:26.578Z,71
2018-05-21T02:09:26.629Z,70.9
2018-05-21T02:14:26.425Z,71.3
2018-05-21T02:19:28.052Z,71.1
2018-05-21T02:24:27.764Z,71.1
2018-05-21T02:29:40.640Z,70.7
2018-05-21T02:34:40.548Z,70.8
2018-05-21T02:39:40.361Z,70.5
2018-05-21T02:44:40.593Z,70.8
2018-05-21T02:49:40.591Z,70.6
2018-05-21T02:54:41.387Z,71.1
2018-05-21T02:59:40.578Z,71.1
2018-05-21T03:04:42.647Z,71.9
2018-05-21T03:09:42.584Z,71.6
2018-05-21T03:14:54.798Z,72
2018-05-21T03:19:54.747Z,71.8
2018-05-21T03:24:54.697Z,72.2
2018-05-21T03:29:54.709Z,71.6
2018-05-21T03:34:54.966Z,71.6
2018-05-21T03:39:54.881Z,71.4
2018-05-21T03:44:54.927Z,71.9
2018-05-21T03:49:55.577Z,71.9
2018-05-21T03:54:55.465Z,72.2
2018-05-21T04:00:07.380Z,72.1
2018-05-21T04:05:07.347Z,72.6
2018-05-21T04:10:07.302Z,71.7
2018-05-21T04:15:07.330Z,71.4
2018-05-21T04:20:07.131Z,71.6
2018-05-21T04:25:07.124Z,70.6
2018-05-21T04:30:07.126Z,70
2018-05-21T04:35:10.398Z,69.9
2018-05-21T04:40:10.129Z,69.3
2018-05-21T04:45:22.913Z,69.1
2018-05-21T04:50:22.650Z,68
2018-05-21T04:55:22.872Z,68.2
2018-05-21T05:00:23.007Z,68.2
2018-05-21T05:05:22.869Z,67.6
2018-05-21T05:10:22.753Z,67.8
2018-05-21T05:15:22.978Z,67.5
2018-05-21T05:20:23.769Z,67
2018-05-21T05:25:23.675Z,67.8
2018-05-21T05:30:36.499Z,68
2018-05-21T05:35:36.415Z,67.8
2018-05-21T05:40:36.323Z,67.4
2018-05-21T05:45:36.377Z,67.6
2018-05-21T05:50:36.592Z,69
2018-05-21T05:55:36.451Z,69.3
2018-05-21T06:00:36.367Z,69.9
2018-05-21T06:05:40.499Z,70.5
2018-05-21T06:10:40.243Z,70.5
2018-05-21T06:15:50.100Z,71.3
2018-05-21T06:20:49.817Z,70.8
2018-05-21T06:25:49.923Z,70.1
2018-05-21T06:30:50.061Z,70.9
2018-05-21T06:35:49.991Z,70.1
2018-05-21T06:40:49.996Z,69.9
2018-05-21T06:45:50.000Z,70.1
2018-05-21T06:50:50.274Z,68.4
2018-05-21T06:55:50.265Z,66.7
2018-05-21T07:01:02.291Z,65.4
2018-05-21T07:06:02.007Z,64.1
2018-05-21T07:11:02.166Z,64.8
2018-05-21T07:16:02.020Z,64.9
2018-05-21T07:21:02.001Z,62.4
2018-05-21T07:26:02.025Z,61.1
2018-05-21T07:31:02.049Z,60.3
2018-05-21T07:36:02.076Z,61.8
2018-05-21T07:41:02.044Z,62.3
2018-05-21T07:46:13.944Z,61.5
2018-05-21T07:51:13.807Z,60.9
2018-05-21T07:56:13.665Z,59.5
2018-05-21T08:01:13.692Z,59.7
2018-05-21T08:06:13.782Z,58.3
2018-05-21T08:11:13.831Z,57.1
2018-05-21T08:16:14.139Z,56.2
2018-05-21T08:21:16.383Z,55.7
2018-05-21T08:26:16.139Z,56.4
2018-05-21T08:31:26.340Z,55.7
2018-05-21T08:36:26.073Z,56.3
2018-05-21T08:41:26.220Z,54.4
2018-05-21T08:46:26.252Z,55.3
2018-05-21T08:51:26.178Z,54.5
2018-05-21T08:56:26.176Z,53.7
2018-05-21T09:01:26.083Z,52
2018-05-21T09:06:27.360Z,53
2018-05-21T09:11:27.235Z,51.6
2018-05-21T09:16:42.937Z,52.1
2018-05-21T09:21:42.598Z,52
2018-05-21T09:26:42.416Z,51.2
2018-05-21T09:31:42.420Z,49
2018-05-21T09:36:42.355Z,48.3
2018-05-21T09:41:42.439Z,49.9
2018-05-21T09:46:42.401Z,49.1
2018-05-21T09:51:44.856Z,48.7
2018-05-21T09:56:44.594Z,48.3
2018-05-21T10:01:57.647Z,48.3
2018-05-21T10:06:57.528Z,48.6
2018-05-21T10:11:57.375Z,46.2
2018-05-21T10:16:57.483Z,47.2
2018-05-21T10:21:57.533Z,45.8
2018-05-21T10:26:57.390Z,47.6
2018-05-21T10:31:57.563Z,48.6
2018-05-21T10:36:58.164Z,46.7
2018-05-21T10:41:57.673Z,45.6
2018-05-21T10:47:12.249Z,45.6
2018-05-21T10:52:12.171Z,47.3
2018-05-21T10:57:11.925Z,48.1
2018-05-21T11:02:12.127Z,47.6
2018-05-21T11:07:11.978Z,47.3
2018-05-21T11:12:12.423Z,46.7
2018-05-21T11:17:11.943Z,48
2018-05-21T11:22:12.002Z,47.2
2018-05-21T11:27:11.967Z,47
2018-05-21T11:32:23.854Z,48.2
2018-05-21T11:37:23.700Z,47.2
2018-05-21T11:42:25.639Z,48.6
2018-05-21T11:47:23.842Z,47.2
2018-05-21T11:52:23.696Z,47.9
2018-05-21T11:57:23.749Z,46.1
2018-05-21T12:02:24.825Z,45.3
2018-05-21T12:07:24.329Z,44.9
2018-05-21T12:12:24.317Z,44.5
2018-05-21T12:17:37.058Z,45.1
2018-05-21T12:22:36.765Z,45.5
2018-05-21T12:27:36.979Z,45.6
2018-05-21T12:32:36.887Z,46.4
2018-05-21T12:37:36.796Z,45.1
2018-05-21T12:42:39.411Z,45.7
2018-05-21T12:47:39.400Z,44.9
2018-05-21T12:52:40.157Z,45.3
2018-05-21T12:57:40.144Z,45.3
2018-05-21T13:02:53.041Z,45.4
2018-05-21T13:07:52.921Z,46.5
2018-05-21T13:12:52.878Z,44.8
2018-05-21T13:17:55.931Z,45.5
2018-05-21T13:22:53.114Z,44.9
2018-05-21T13:27:53.033Z,44.4
2018-05-21T13:32:53.130Z,45.4
2018-05-21T13:37:53.882Z,45
2018-05-21T13:43:09.830Z,46.1
2018-05-21T13:48:00.337Z,45.5
2018-05-21T13:52:59.228Z,45.6
2018-05-21T13:57:59.408Z,45.9
2018-05-21T14:03:01.529Z,45.7
2018-05-21T14:08:01.422Z,45.1
2018-05-21T14:13:16.721Z,45.4
2018-05-21T14:18:16.521Z,45.2
2018-05-21T14:23:16.453Z,45
2018-05-21T14:28:16.468Z,43.7
2018-05-21T14:33:16.703Z,44.6
2018-05-21T14:38:16.475Z,44.5
2018-05-21T14:43:16.456Z,45.1
2018-05-21T14:48:16.519Z,44.4
2018-05-21T14:53:16.679Z,44.1
2018-05-21T14:58:16.883Z,44.9
2018-05-21T15:03:16.495Z,44.6
2018-05-21T15:08:16.485Z,45.5
2018-05-21T15:13:16.567Z,45.2
2018-05-21T15:18:16.574Z,46.8
2018-05-21T15:23:28.834Z,46.9
2018-05-21T15:28:28.708Z,46.5
2018-05-21T15:33:28.579Z,46.9
2018-05-21T15:38:28.523Z,47.2
2018-05-21T15:43:28.790Z,47
2018-05-21T15:48:28.592Z,47.2
2018-05-21T15:53:33.636Z,48.6
2018-05-21T15:58:34.745Z,49
2018-05-21T16:03:34.425Z,48
2018-05-21T16:08:45.592Z,48.7
2018-05-21T16:13:45.426Z,49.7
2018-05-21T16:18:45.339Z,50.2
2018-05-21T16:23:45.444Z,50.3
2018-05-21T16:28:45.462Z,50
2018-05-21T16:33:45.450Z,51.8
2018-05-21T16:38:45.518Z,51.6
2018-05-21T16:43:46.606Z,52.9
2018-05-21T16:48:46.372Z,52.7
2018-05-21T16:53:58.937Z,53
2018-05-21T16:58:58.458Z,52.5
2018-05-21T17:03:58.443Z,54.1
2018-05-21T17:08:58.461Z,54.6
2018-05-21T17:13:58.596Z,54.6
2018-05-21T17:18:58.586Z,55.5
2018-05-21T17:23:58.491Z,55.2
2018-05-21T17:28:58.474Z,56.6
2018-05-21T17:33:58.466Z,55.7
2018-05-21T17:39:10.121Z,55.7
2018-05-21T17:44:09.867Z,56.2
2018-05-21T17:49:10.055Z,56.3
2018-05-21T17:54:09.828Z,56.7
2018-05-21T17:59:10.057Z,56.2
2018-05-21T18:04:09.909Z,55.8
2018-05-21T18:09:09.884Z,56.5
2018-05-21T18:14:11.307Z,56.6
2018-05-21T18:19:09.949Z,57.2
2018-05-21T18:24:21.803Z,56.9
2018-05-21T18:29:21.537Z,57.5
2018-05-21T18:34:21.457Z,57.6
2018-05-21T18:39:21.491Z,58.6
2018-05-21T18:44:21.528Z,58.5
2018-05-21T18:49:21.495Z,58.3
2018-05-21T18:54:21.609Z,58.6
2018-05-21T18:59:26.596Z,60
2018-05-21T19:04:26.295Z,60.2
2018-05-21T19:09:37.125Z,60.7
2018-05-21T19:14:36.898Z,60.6
2018-05-21T19:19:37.047Z,61.3
2018-05-21T19:24:36.839Z,61.3
2018-05-21T19:29:36.959Z,61.4
2018-05-21T19:34:36.825Z,62.5
2018-05-21T19:39:36.848Z,62.3
2018-05-21T19:44:40.911Z,63.1
2018-05-21T19:49:40.665Z,63.2
2018-05-21T19:54:54.703Z,63.3
2018-05-21T19:59:54.628Z,63.8
2018-05-21T20:04:54.737Z,63.7
2018-05-21T20:09:54.921Z,63.9
2018-05-21T20:14:54.523Z,64.2
2018-05-21T20:19:54.628Z,64.3
2018-05-21T20:24:54.501Z,64.8
2018-05-21T20:29:56.290Z,64.6
2018-05-21T20:34:56.034Z,65.5
2018-05-21T20:40:06.993Z,66.3
2018-05-21T20:45:06.288Z,65.9
2018-05-21T20:50:06.997Z,66.1
2018-05-21T20:55:06.297Z,66.4
2018-05-21T21:00:06.315Z,67.4
2018-05-21T21:05:06.777Z,67.4
2018-05-21T21:10:06.809Z,67.4
2018-05-21T21:15:06.797Z,67.8
2018-05-21T21:20:06.771Z,68.5
2018-05-21T21:25:18.644Z,69.7
2018-05-21T21:30:18.361Z,69.7
2018-05-21T21:35:18.494Z,69.7
2018-05-21T21:40:18.847Z,70.3
2018-05-21T21:45:18.736Z,70.7
2018-05-21T21:50:18.824Z,71.6
2018-05-21T21:55:18.859Z,72.2
2018-05-21T22:00:20.711Z,71.5
2018-05-21T22:05:20.651Z,72.1
2018-05-21T22:10:31.668Z,72.4
2018-05-21T22:15:31.375Z,72.5
2018-05-21T22:20:31.610Z,72.7
2018-05-21T22:25:32.678Z,73.2
2018-05-21T22:30:31.555Z,73
2018-05-21T22:35:31.481Z,73.1
2018-05-21T22:40:31.520Z,73
2018-05-21T22:45:31.580Z,72.8
2018-05-21T22:50:31.755Z,73
2018-05-21T22:55:44.683Z,73.3
2018-05-21T23:00:44.581Z,73.7
2018-05-21T23:05:44.607Z,73.2
2018-05-21T23:10:44.658Z,73.8
2018-05-21T23:15:44.571Z,73.7
2018-05-21T23:20:44.606Z,74.1
2018-05-21T23:25:44.420Z,74.4
2018-05-21T23:30:45.088Z,73.5
2018-05-21T23:35:45.003Z,74.2
2018-05-21T23:40:57.752Z,73.3
2018-05-21T23:45:57.779Z,74.3
2018-05-21T23:50:57.601Z,73.7
2018-05-21T23:55:57.627Z,75.5
